Time;durP1;ratioP1;P1;durP2;ratioP2;P2;SDS_P1;SDS_P2;PMS_P1;PMS_P2;Temp;Humidity;BMP_temperature;BMP_pressure;BME280_temperature;BME280_humidity;BME280_pressure;Samples;Min_cycle;Max_cycle;Signal;HPM_P1;HPM_P2
2022/07/09 00:00:05;;;;;;;6.23;3.00;;;;;;;15.85;64.69;99231.94;5074103;28;20323;-69
2022/07/09 00:02:31;;;;;;;5.07;2.90;;;;;;;15.83;65.63;99227.84;5074162;28;20311;-70
2022/07/09 00:04:58;;;;;;;4.63;2.70;;;;;;;15.82;65.23;99224.34;5073784;28;20755;-69
2022/07/09 00:07:26;;;;;;;9.87;2.90;;;;;;;15.73;65.79;99228.38;5073758;28;20671;-70
2022/07/09 00:09:52;;;;;;;8.63;3.00;;;;;;;15.77;65.62;99224.19;5073988;28;20319;-69
2022/07/09 00:12:19;;;;;;;5.90;3.00;;;;;;;15.72;66.16;99232.09;5074036;28;20212;-70
2022/07/09 00:14:46;;;;;;;8.50;2.80;;;;;;;15.68;66.42;99224.72;5074216;28;20205;-70
2022/07/09 00:17:13;;;;;;;4.20;2.80;;;;;;;15.67;66.73;99221.22;5073832;28;20224;-69
2022/07/09 00:19:39;;;;;;;5.37;2.80;;;;;;;15.50;67.05;99212.13;5073670;28;20240;-69
2022/07/09 00:22:06;;;;;;;5.97;3.10;;;;;;;15.49;67.24;99221.22;5073831;28;20296;-69
2022/07/09 00:24:33;;;;;;;5.67;2.70;;;;;;;15.47;67.49;99220.59;5073712;28;20220;-69
2022/07/09 00:26:59;;;;;;;6.60;3.27;;;;;;;15.39;67.64;99215.56;5073659;28;20295;-69
2022/07/09 00:29:25;;;;;;;4.87;2.80;;;;;;;15.36;68.06;99215.97;5073671;28;20311;-69
2022/07/09 00:31:52;;;;;;;3.40;2.57;;;;;;;15.36;67.72;99215.16;5073789;28;20200;-69
2022/07/09 00:34:18;;;;;;;6.67;2.77;;;;;;;15.32;68.25;99216.59;5073642;28;20210;-70
2022/07/09 00:36:45;;;;;;;5.07;3.00;;;;;;;15.32;67.82;99213.91;5073316;28;20695;-69
2022/07/09 00:39:11;;;;;;;5.57;3.00;;;;;;;15.43;67.19;99211.34;5073620;28;20315;-69
2022/07/09 00:41:37;;;;;;;5.73;2.90;;;;;;;15.34;67.99;99210.00;5073634;28;20291;-69
2022/07/09 00:44:04;;;;;;;7.40;2.70;;;;;;;15.37;67.43;99206.09;5073604;28;20207;-70
2022/07/09 00:46:30;;;;;;;5.77;3.30;;;;;;;15.41;66.08;99205.41;5073591;28;20201;-69
2022/07/09 00:48:57;;;;;;;4.93;3.07;;;;;;;15.32;66.92;99204.03;5073188;28;20589;-69
2022/07/09 00:51:23;;;;;;;4.73;3.00;;;;;;;15.28;66.99;99196.66;5073526;28;20205;-69
2022/07/09 00:53:51;;;;;;;5.43;2.80;;;;;;;15.26;66.85;99198.72;5073524;28;20215;-70
2022/07/09 00:56:17;;;;;;;6.90;3.00;;;;;;;15.22;67.30;99197.53;5073089;28;20691;-70
2022/07/09 00:58:46;;;;;;;6.23;2.77;;;;;;;15.19;68.15;99192.63;5073364;28;20315;-70
2022/07/09 01:01:12;;;;;;;4.77;2.93;;;;;;;15.29;67.64;99183.03;5072213;28;20204;-69
2022/07/09 01:03:38;;;;;;;6.43;3.20;;;;;;;15.26;68.60;99185.34;5073409;28;20293;-69
2022/07/09 01:06:05;;;;;;;5.23;3.00;;;;;;;15.19;68.46;99179.25;5072978;28;20203;-70
2022/07/09 01:08:32;;;;;;;7.33;3.17;;;;;;;15.26;68.15;99178.13;5073257;28;20312;-70
2022/07/09 01:10:59;;;;;;;6.47;2.87;;;;;;;15.15;69.05;99178.84;5073263;28;20204;-69
2022/07/09 01:13:26;;;;;;;8.67;2.83;;;;;;;15.17;69.62;99166.06;5072767;28;20659;-69
2022/07/09 01:15:52;;;;;;;7.53;3.03;;;;;;;15.15;69.69;99180.72;5073149;28;20224;-69
2022/07/09 01:18:19;;;;;;;6.90;3.13;;;;;;;15.12;70.19;99178.47;5072819;28;20310;-70
2022/07/09 01:20:46;;;;;;;4.33;3.00;;;;;;;15.02;70.84;99170.94;5073174;28;20192;-70
2022/07/09 01:23:12;;;;;;;6.20;3.23;;;;;;;15.02;71.11;99180.84;5073268;28;20204;-70
2022/07/09 01:25:43;;;;;;;6.93;3.40;;;;;;;15.11;70.99;99177.63;5072810;28;20725;-69
2022/07/09 01:28:10;;;;;;;3.93;2.90;;;;;;;14.98;71.71;99176.97;5073113;28;20228;-70
2022/07/09 01:30:38;;;;;;;4.80;3.30;;;;;;;14.86;72.61;99173.34;5071754;28;20299;-70
2022/07/09 01:33:05;;;;;;;5.73;3.13;;;;;;;14.87;72.52;99170.44;5071259;28;20299;-69
2022/07/09 01:35:31;;;;;;;7.27;3.27;;;;;;;14.95;72.40;99164.81;5071854;28;20628;-70
2022/07/09 01:37:58;;;;;;;7.83;3.60;;;;;;;14.93;72.63;99166.09;5071963;28;20240;-70
2022/07/09 01:40:25;;;;;;;6.57;3.13;;;;;;;14.89;73.16;99165.72;5072392;28;20266;-70
2022/07/09 01:42:51;;;;;;;9.33;3.60;;;;;;;14.82;73.83;99164.94;5072363;28;20208;-69
2022/07/09 01:45:18;;;;;;;7.47;3.50;;;;;;;14.74;73.88;99165.22;5072496;28;20624;-70
2022/07/09 01:47:44;;;;;;;8.37;3.73;;;;;;;14.79;73.76;99159.22;5072675;28;20690;-69
2022/07/09 01:50:11;;;;;;;6.17;3.70;;;;;;;14.71;74.77;99154.94;5072904;28;20311;-70
2022/07/09 01:52:38;;;;;;;4.10;3.27;;;;;;;14.69;74.50;99162.38;5072631;28;20304;-69
2022/07/09 01:55:05;;;;;;;4.20;3.00;;;;;;;14.77;74.02;99166.63;5072949;28;20627;-70
2022/07/09 01:57:31;;;;;;;6.37;3.17;;;;;;;14.75;73.87;99153.44;5072844;28;20224;-70
2022/07/09 01:59:57;;;;;;;8.10;3.50;;;;;;;14.70;74.81;99155.16;5072717;28;20227;-70
2022/07/09 02:02:24;;;;;;;6.87;3.27;;;;;;;14.69;74.76;99151.66;5076051;28;20690;-70
2022/07/09 02:04:50;;;;;;;7.87;3.30;;;;;;;14.65;74.50;99147.78;5076677;28;20307;-70
2022/07/09 02:07:17;;;;;;;6.53;3.10;;;;;;;14.61;75.32;99146.56;5076440;28;20201;-69
2022/07/09 02:09:43;;;;;;;3.40;2.93;;;;;;;14.54;75.16;99140.47;5075939;28;20227;-69
2022/07/09 02:12:10;;;;;;;7.67;3.20;;;;;;;14.49;75.25;99142.97;5076314;28;20632;-69
2022/07/09 02:14:37;;;;;;;5.90;3.20;;;;;;;14.48;75.11;99138.63;5076277;28;20212;-69
2022/07/09 02:17:04;;;;;;;4.43;2.90;;;;;;;14.37;76.10;99138.50;5076140;28;20220;-70
2022/07/09 02:19:30;;;;;;;6.20;3.37;;;;;;;14.33;76.28;99140.81;5075931;28;20232;-69
2022/07/09 02:21:56;;;;;;;6.53;3.63;;;;;;;14.35;76.12;99136.09;5076170;28;20295;-70
2022/07/09 02:24:23;;;;;;;4.63;3.10;;;;;;;14.36;76.74;99135.03;5076187;28;20626;-69
2022/07/09 02:26:49;;;;;;;8.07;3.00;;;;;;;14.38;75.96;99134.84;5076250;28;20203;-69
2022/07/09 02:29:16;;;;;;;4.63;2.60;;;;;;;14.39;76.11;99137.25;5075697;28;20236;-69
2022/07/09 02:31:42;;;;;;;4.70;3.20;;;;;;;14.33;76.51;99132.78;5075512;28;20694;-70
2022/07/09 02:34:08;;;;;;;5.80;3.13;;;;;;;14.30;76.72;99127.88;5075891;28;20241;-70
2022/07/09 02:36:35;;;;;;;5.40;3.40;;;;;;;14.21;76.80;99137.22;5075826;28;20247;-69
2022/07/09 02:39:01;;;;;;;6.17;2.83;;;;;;;14.25;76.45;99135.72;5075827;28;20833;-70
2022/07/09 02:41:27;;;;;;;6.20;3.30;;;;;;;14.26;76.65;99139.22;5075832;28;20303;-69
2022/07/09 02:43:54;;;;;;;3.90;3.10;;;;;;;14.19;77.13;99130.38;5075477;28;20693;-69
2022/07/09 02:46:20;;;;;;;4.83;3.20;;;;;;;14.16;77.39;99126.28;5075735;28;20224;-69
2022/07/09 02:48:47;;;;;;;3.70;2.90;;;;;;;14.11;77.75;99128.78;5075603;28;20224;-69
2022/07/09 02:51:13;;;;;;;3.50;2.73;;;;;;;14.06;78.23;99131.28;5075274;28;20671;-69
2022/07/09 02:53:39;;;;;;;6.20;3.23;;;;;;;13.99;78.07;99138.53;5075545;28;20551;-69
2022/07/09 02:56:06;;;;;;;6.67;3.00;;;;;;;13.99;77.87;99135.88;5075147;28;20315;-69
2022/07/09 02:58:33;;;;;;;5.87;3.13;;;;;;;14.10;77.81;99142.38;5074926;28;20663;-69
2022/07/09 03:00:59;;;;;;;4.17;2.77;;;;;;;14.05;78.27;99140.34;5075106;28;20739;-69
2022/07/09 03:03:26;;;;;;;5.17;3.13;;;;;;;14.04;77.21;99141.41;5075297;28;20295;-69
2022/07/09 03:05:52;;;;;;;4.93;3.03;;;;;;;14.18;76.69;99128.75;5074904;28;20204;-69
2022/07/09 03:08:21;;;;;;;5.57;2.87;;;;;;;14.09;77.28;99144.25;5075131;28;20235;-69
2022/07/09 03:10:49;;;;;;;6.63;3.20;;;;;;;14.00;77.70;99126.81;5075178;28;20258;-69
2022/07/09 03:13:16;;;;;;;5.40;2.90;;;;;;;13.99;77.85;99135.88;5074170;28;20204;-69
2022/07/09 03:15:42;;;;;;;7.23;3.20;;;;;;;13.94;77.38;99134.88;5074988;28;20300;-69
2022/07/09 03:18:09;;;;;;;4.70;2.60;;;;;;;14.01;77.23;99141.81;5074447;28;20263;-70
2022/07/09 03:20:36;;;;;;;5.40;2.90;;;;;;;14.03;77.30;99141.59;5075243;28;20209;-69
2022/07/09 03:23:04;;;;;;;5.67;2.83;;;;;;;14.05;76.99;99143.03;5074819;28;20211;-69
2022/07/09 03:25:31;;;;;;;7.17;3.03;;;;;;;14.02;77.48;99148.00;5075038;28;20291;-70
2022/07/09 03:27:57;;;;;;;4.97;2.50;;;;;;;13.90;77.98;99149.69;5074798;28;20298;-69
2022/07/09 03:30:23;;;;;;;5.30;3.37;;;;;;;13.94;78.06;99143.72;5074708;28;20569;-69
2022/07/09 03:32:51;;;;;;;6.90;3.17;;;;;;;14.02;77.93;99151.47;5074669;28;20204;-69
2022/07/09 03:35:18;;;;;;;6.77;3.80;;;;;;;13.90;78.50;99158.53;5074580;28;20211;-69
2022/07/09 03:37:44;;;;;;;6.50;3.03;;;;;;;13.92;78.94;99147.59;5074484;28;20231;-69
2022/07/09 03:40:11;;;;;;;4.93;3.37;;;;;;;13.94;78.87;99154.41;5074053;28;20802;-69
2022/07/09 03:42:37;;;;;;;4.47;3.17;;;;;;;13.95;79.02;99152.53;5074088;28;20667;-69
2022/07/09 03:45:04;;;;;;;3.60;2.90;;;;;;;13.94;78.91;99148.22;5074765;28;20209;-69
2022/07/09 03:47:30;;;;;;;5.23;3.50;;;;;;;13.96;78.81;99152.34;5073947;28;20562;-69
2022/07/09 03:49:57;;;;;;;3.60;3.30;;;;;;;13.99;78.39;99141.22;5074100;28;20224;-69
2022/07/09 03:52:23;;;;;;;4.37;2.90;;;;;;;13.98;78.32;99144.09;5075021;28;20211;-70
2022/07/09 03:54:50;;;;;;;5.77;3.10;;;;;;;14.02;78.10;99150.66;5074043;28;20689;-70
2022/07/09 03:57:16;;;;;;;6.10;3.17;;;;;;;13.97;77.97;99151.28;5074170;28;20224;-70
2022/07/09 03:59:42;;;;;;;4.63;3.00;;;;;;;13.98;78.68;99147.56;5073868;28;20663;-69
2022/07/09 04:02:09;;;;;;;6.17;3.10;;;;;;;14.02;78.93;99150.66;5074188;28;20295;-69
2022/07/09 04:04:35;;;;;;;4.77;2.80;;;;;;;14.02;78.58;99150.66;5074078;28;20654;-69
2022/07/09 04:07:02;;;;;;;5.20;3.20;;;;;;;14.01;78.61;99155.19;5074022;28;20196;-69
2022/07/09 04:09:28;;;;;;;4.60;3.03;;;;;;;14.01;78.18;99147.16;5073766;28;20711;-69
2022/07/09 04:11:54;;;;;;;7.83;3.73;;;;;;;14.04;78.49;99152.09;5073580;28;20229;-69
2022/07/09 04:14:21;;;;;;;5.80;3.43;;;;;;;14.03;78.31;99161.16;5073448;28;20211;-69
2022/07/09 04:16:47;;;;;;;5.03;3.37;;;;;;;13.99;78.26;99154.59;5073824;28;20231;-69
2022/07/09 04:19:14;;;;;;;4.50;2.80;;;;;;;14.01;78.72;99159.69;5073478;28;20322;-70
2022/07/09 04:21:41;;;;;;;4.73;3.13;;;;;;;13.87;78.43;99156.28;5073438;28;20671;-70
2022/07/09 04:24:07;;;;;;;4.70;3.00;;;;;;;13.97;78.37;99161.19;5073366;28;20200;-69
2022/07/09 04:26:33;;;;;;;3.83;2.93;;;;;;;14.06;78.06;99160.69;5073495;28;20204;-69
2022/07/09 04:29:00;;;;;;;4.83;3.40;;;;;;;14.10;77.83;99161.91;5073679;28;20320;-69
2022/07/09 04:31:26;;;;;;;6.93;3.00;;;;;;;14.08;77.67;99164.00;5073547;28;20638;-69
2022/07/09 04:33:52;;;;;;;4.80;3.30;;;;;;;13.99;77.83;99173.31;5073637;28;20201;-70
2022/07/09 04:36:19;;;;;;;3.50;2.57;;;;;;;14.08;77.84;99177.38;5073170;28;20204;-69
2022/07/09 04:38:45;;;;;;;4.63;2.97;;;;;;;14.04;77.43;99170.81;5073478;28;20323;-69
2022/07/09 04:41:12;;;;;;;4.97;2.80;;;;;;;14.01;77.75;99176.56;5073367;28;20205;-69
2022/07/09 04:43:38;;;;;;;3.10;2.70;;;;;;;14.05;77.29;99166.25;5073275;28;20295;-69
2022/07/09 04:46:05;;;;;;;3.87;2.93;;;;;;;14.04;77.81;99164.63;5073306;28;20218;-69
2022/07/09 04:48:31;;;;;;;4.87;2.90;;;;;;;14.06;77.76;99163.38;5073222;28;20307;-69
2022/07/09 04:50:58;;;;;;;4.93;2.77;;;;;;;14.13;77.16;99158.00;5073300;28;20208;-69
2022/07/09 04:53:24;;;;;;;6.07;2.90;;;;;;;14.15;76.78;99162.09;5073264;28;20261;-69
2022/07/09 04:55:51;;;;;;;4.27;2.90;;;;;;;14.14;76.54;99156.94;5073420;28;20205;-69
2022/07/09 04:58:17;;;;;;;4.77;3.13;;;;;;;14.17;76.55;99162.72;5073224;28;20316;-69
2022/07/09 05:00:43;;;;;;;6.00;3.00;;;;;;;14.30;76.28;99161.84;5073070;28;20208;-69
2022/07/09 05:03:10;;;;;;;5.00;3.13;;;;;;;14.32;75.88;99167.78;5073837;28;20216;-69
2022/07/09 05:05:37;;;;;;;5.47;3.00;;;;;;;14.44;75.98;99171.41;5073286;28;20204;-69
2022/07/09 05:08:03;;;;;;;7.80;3.17;;;;;;;14.43;75.74;99159.06;5073126;28;20301;-69
2022/07/09 05:10:30;;;;;;;7.50;3.50;;;;;;;14.50;75.13;99154.47;5073182;28;20204;-69
2022/07/09 05:12:56;;;;;;;4.20;2.63;;;;;;;14.69;75.61;99164.22;5072787;28;20746;-69
2022/07/09 05:15:23;;;;;;;5.73;3.00;;;;;;;14.88;74.34;99156.03;5073332;28;20299;-70
2022/07/09 05:17:49;;;;;;;5.70;3.20;;;;;;;15.18;72.98;99162.34;5073075;28;20224;-70
2022/07/09 05:20:16;;;;;;;5.23;3.00;;;;;;;15.42;71.84;99160.69;5072456;28;20304;-69
2022/07/09 05:22:43;;;;;;;4.27;3.00;;;;;;;15.88;69.02;99156.38;5072645;28;20212;-69
2022/07/09 05:25:10;;;;;;;5.13;2.90;;;;;;;16.36;66.76;99149.13;5073067;28;20219;-69
2022/07/09 05:27:45;;;;;;;4.70;2.90;;;;;;;17.00;64.50;99151.00;5073051;28;20201;-69
2022/07/09 05:30:14;;;;;;;5.50;3.10;;;;;;;17.05;63.81;99160.00;5072715;28;20593;-69
2022/07/09 05:32:41;;;;;;;6.97;2.90;;;;;;;16.92;63.78;99154.84;5072964;28;20208;-70
2022/07/09 05:35:08;;;;;;;5.67;3.03;;;;;;;16.76;64.92;99157.41;5073203;28;20290;-69
2022/07/09 05:37:41;;;;;;;7.30;3.07;;;;;;;16.59;65.62;99159.94;5075980;28;20762;-70
2022/07/09 05:40:08;;;;;;;4.60;3.00;;;;;;;16.32;66.28;99152.47;5076310;28;20715;-70
2022/07/09 05:42:35;;;;;;;6.37;3.00;;;;;;;16.05;67.25;99165.47;5076579;28;20211;-70
2022/07/09 05:45:01;;;;;;;4.83;3.20;;;;;;;16.03;67.71;99161.38;5076243;28;20753;-70
2022/07/09 05:47:28;;;;;;;7.43;3.40;;;;;;;16.27;67.48;99168.44;5076517;28;20200;-70
2022/07/09 05:49:54;;;;;;;8.47;3.50;;;;;;;16.38;66.62;99157.75;5076398;28;20320;-69
2022/07/09 05:52:20;;;;;;;3.57;3.00;;;;;;;16.32;67.21;99169.41;5076476;28;20323;-69
2022/07/09 05:54:47;;;;;;;4.80;3.07;;;;;;;16.09;67.87;99168.50;5076142;28;20201;-69
2022/07/09 05:57:13;;;;;;;6.87;3.33;;;;;;;16.39;67.82;99170.16;5076288;28;20228;-70
2022/07/09 05:59:40;;;;;;;5.13;3.10;;;;;;;16.48;66.52;99167.97;5076092;28;20221;-69
2022/07/09 06:02:07;;;;;;;4.20;2.77;;;;;;;16.64;65.90;99165.44;5076063;28;20671;-69
2022/07/09 06:04:33;;;;;;;3.93;3.00;;;;;;;16.69;66.19;99159.41;5076240;28;20295;-69
2022/07/09 06:06:59;;;;;;;5.60;2.90;;;;;;;16.71;66.06;99163.47;5076188;28;20201;-69
2022/07/09 06:09:26;;;;;;;5.43;2.83;;;;;;;16.97;66.09;99160.34;5075818;28;20658;-69
2022/07/09 06:11:52;;;;;;;6.37;3.20;;;;;;;16.96;65.30;99160.59;5076224;28;20240;-70
2022/07/09 06:14:19;;;;;;;4.53;3.07;;;;;;;17.00;64.84;99157.19;5076139;28;20660;-69
2022/07/09 06:16:47;;;;;;;4.03;2.70;;;;;;;17.05;65.33;99157.31;5075660;28;20566;-69
2022/07/09 06:19:14;;;;;;;4.50;3.03;;;;;;;17.06;64.97;99158.94;5075523;28;20236;-70
2022/07/09 06:21:41;;;;;;;6.77;2.80;;;;;;;17.08;64.89;99158.72;5075911;28;20291;-70
2022/07/09 06:24:08;;;;;;;5.40;3.03;;;;;;;17.21;65.02;99156.63;5075903;28;20296;-70
2022/07/09 06:26:34;;;;;;;8.03;3.00;;;;;;;17.05;62.60;99151.94;5075347;28;20295;-70
2022/07/09 06:29:01;;;;;;;4.70;2.83;;;;;;;17.06;63.47;99148.19;5075351;28;20278;-70
2022/07/09 06:31:27;;;;;;;5.60;2.60;;;;;;;17.27;63.63;99157.53;5075499;28;20201;-69
2022/07/09 06:33:53;;;;;;;3.93;2.47;;;;;;;17.39;62.65;99152.97;5075654;28;20299;-70
2022/07/09 06:36:20;;;;;;;4.07;2.47;;;;;;;17.53;62.68;99160.59;5075342;28;20659;-70
2022/07/09 06:41:30;;;;;;;5.00;2.63;;;;;;;17.38;62.43;99152.13;5075635;28;20195;-69
2022/07/09 06:43:57;;;;;;;4.77;2.40;;;;;;;17.40;63.42;99155.47;5075268;28;20204;-70
2022/07/09 06:46:23;;;;;;;4.13;2.20;;;;;;;17.35;63.01;99149.13;5075241;28;20200;-70
2022/07/09 06:48:49;;;;;;;5.30;2.50;;;;;;;17.37;63.02;99144.34;5074974;28;20221;-69
2022/07/09 06:51:16;;;;;;;3.70;2.50;;;;;;;17.28;63.04;99149.25;5075402;28;20208;-70
2022/07/09 06:53:42;;;;;;;4.63;2.30;;;;;;;17.44;63.42;99145.88;5075511;28;20211;-70
2022/07/09 06:56:08;;;;;;;4.20;2.70;;;;;;;17.76;62.00;99147.09;5075443;28;20572;-70
2022/07/09 06:58:35;;;;;;;6.93;2.87;;;;;;;17.96;61.69;99146.69;5075243;28;20235;-70
2022/07/09 07:01:01;;;;;;;5.77;2.60;;;;;;;17.97;61.53;99143.72;5075090;28;20212;-70
2022/07/09 07:03:28;;;;;;;6.73;3.10;;;;;;;17.99;61.06;99144.31;5075200;28;20211;-70
2022/07/09 07:05:54;;;;;;;3.90;2.77;;;;;;;18.38;60.24;99142.66;5075035;28;20244;-70
2022/07/09 07:08:20;;;;;;;3.73;2.33;;;;;;;18.33;60.35;99137.97;5074917;28;20334;-69
2022/07/09 07:10:47;;;;;;;4.90;2.67;;;;;;;18.08;60.38;99145.56;5075122;28;20204;-70
2022/07/09 07:13:13;;;;;;;5.77;2.90;;;;;;;18.39;59.73;99133.50;5074814;28;20685;-70
2022/07/09 07:15:39;;;;;;;4.93;2.70;;;;;;;18.78;58.42;99146.84;5074911;28;20204;-70
2022/07/09 07:18:06;;;;;;;5.30;2.87;;;;;;;18.59;59.59;99147.34;5074713;28;20221;-70
2022/07/09 07:20:32;;;;;;;4.97;2.83;;;;;;;18.94;59.29;99151.41;5074914;28;20295;-70
2022/07/09 07:22:59;;;;;;;5.33;2.47;;;;;;;19.00;58.60;99150.41;5074139;28;20291;-70
2022/07/09 07:25:25;;;;;;;2.90;2.20;;;;;;;19.08;58.92;99146.50;5074573;28;20572;-70
2022/07/09 07:27:52;;;;;;;5.00;2.27;;;;;;;19.09;58.59;99140.84;5074521;28;20207;-70
2022/07/09 07:30:18;;;;;;;5.00;2.57;;;;;;;19.22;58.95;99142.38;5074378;28;20299;-70
2022/07/09 07:32:45;;;;;;;5.30;2.43;;;;;;;19.48;58.67;99138.22;5074436;28;20207;-70
2022/07/09 07:35:11;;;;;;;6.07;2.40;;;;;;;19.62;57.44;99144.88;5074457;28;20291;-69
2022/07/09 07:37:37;;;;;;;5.67;2.77;;;;;;;19.35;56.90;99139.38;5074646;28;20232;-70
2022/07/09 07:40:04;;;;;;;5.13;3.00;;;;;;;19.42;57.21;99142.72;5073970;28;20228;-70
2022/07/09 07:42:31;;;;;;;5.50;2.60;;;;;;;19.72;55.83;99142.28;5074392;28;20235;-69
2022/07/09 07:44:57;;;;;;;2.83;2.30;;;;;;;19.87;55.96;99142.47;5073908;28;20209;-69
2022/07/09 07:47:24;;;;;;;3.30;2.47;;;;;;;19.86;54.94;99140.84;5073897;28;20686;-69
2022/07/09 07:49:51;;;;;;;4.23;2.23;;;;;;;19.80;54.87;99145.34;5074495;28;20311;-69
2022/07/09 07:52:18;;;;;;;7.33;2.40;;;;;;;19.91;55.55;99147.13;5074119;28;20277;-69
2022/07/09 07:54:44;;;;;;;5.67;2.40;;;;;;;19.94;54.15;99140.41;5073961;28;20362;-70
2022/07/09 07:57:11;;;;;;;4.20;2.20;;;;;;;20.29;52.15;99138.09;5073947;28;20212;-69
2022/07/09 07:59:37;;;;;;;7.27;2.10;;;;;;;20.21;52.35;99133.19;5073104;28;20801;-70
2022/07/09 08:02:04;;;;;;;5.30;2.30;;;;;;;20.27;53.48;99132.16;5073714;28;20218;-70
2022/07/09 08:04:31;;;;;;;3.40;2.20;;;;;;;20.32;53.09;99119.53;5073600;28;20687;-69
2022/07/09 08:06:57;;;;;;;5.73;2.53;;;;;;;20.50;52.12;99129.94;5073939;28;20219;-69
2022/07/09 08:09:24;;;;;;;3.80;2.00;;;;;;;20.59;51.81;99131.13;5073805;28;20312;-70
2022/07/09 08:11:50;;;;;;;6.13;2.53;;;;;;;20.72;51.09;99133.41;5073831;28;20205;-69
2022/07/09 08:14:16;;;;;;;3.27;1.97;;;;;;;20.92;51.46;99130.03;5073837;28;20292;-69
2022/07/09 08:16:43;;;;;;;6.03;2.20;;;;;;;21.07;51.12;99130.97;5073339;28;20240;-70
2022/07/09 08:19:09;;;;;;;2.77;1.93;;;;;;;20.92;51.39;99124.63;5073331;28;20324;-69
2022/07/09 08:21:36;;;;;;;4.60;1.70;;;;;;;20.97;51.63;99122.78;5073688;28;20212;-70
2022/07/09 08:24:04;;;;;;;6.37;2.10;;;;;;;21.20;52.47;99125.09;5073395;28;20207;-70
2022/07/09 08:26:31;;;;;;;3.17;2.23;;;;;;;21.13;51.49;99123.72;5073397;28;20209;-69
2022/07/09 08:28:57;;;;;;;5.77;1.90;;;;;;;21.24;51.46;99122.69;5073004;28;20311;-70
2022/07/09 08:31:24;;;;;;;2.97;1.80;;;;;;;21.44;50.07;99118.19;5073333;28;20205;-69
2022/07/09 08:33:51;;;;;;;5.10;2.40;;;;;;;21.08;50.98;99118.28;5073345;28;20296;-70
2022/07/09 08:36:18;;;;;;;5.40;2.03;;;;;;;21.35;51.96;99121.69;5073305;28;20208;-70
2022/07/09 08:38:46;;;;;;;3.90;2.23;;;;;;;21.33;50.21;99121.94;5073064;28;20315;-70
2022/07/09 08:41:15;;;;;;;2.80;1.40;;;;;;;21.15;50.49;99116.97;5072717;28;20236;-70
2022/07/09 08:43:42;;;;;;;3.73;1.60;;;;;;;21.10;49.66;99114.22;5073335;28;20200;-70
2022/07/09 08:46:08;;;;;;;5.00;1.80;;;;;;;21.29;50.15;99112.72;5072978;28;20667;-70
2022/07/09 08:48:36;;;;;;;3.60;1.57;;;;;;;21.50;50.26;99098.22;5072968;28;20311;-70
2022/07/09 08:51:03;;;;;;;4.00;1.90;;;;;;;21.72;48.80;99101.59;5072994;28;20207;-70
2022/07/09 08:53:30;;;;;;;2.47;1.23;;;;;;;21.81;48.07;99096.47;5073009;28;20295;-69
2022/07/09 08:55:58;;;;;;;4.47;1.40;;;;;;;21.98;49.51;99095.16;5072695;28;20200;-69
2022/07/09 08:58:25;;;;;;;3.73;1.50;;;;;;;21.87;48.53;99090.81;5072664;28;20699;-69
2022/07/09 09:00:52;;;;;;;4.47;1.50;;;;;;;21.45;49.08;99091.97;5073054;28;20295;-69
2022/07/09 09:03:18;;;;;;;2.30;1.57;;;;;;;21.93;49.23;99086.25;5073726;28;20232;-70
2022/07/09 09:05:46;;;;;;;5.17;1.60;;;;;;;22.15;48.32;99086.84;5072336;28;20299;-70
2022/07/09 09:08:23;;;;;;;3.97;1.80;;;;;;;22.11;47.78;99089.25;5072362;28;20307;-70
2022/07/09 09:10:50;;;;;;;3.33;1.50;;;;;;;21.91;48.09;99081.09;5074271;28;20204;-69
2022/07/09 09:13:18;;;;;;;5.17;1.80;;;;;;;21.84;47.67;99077.00;5077050;28;20239;-69
2022/07/09 09:15:45;;;;;;;3.67;1.50;;;;;;;21.73;48.20;99070.75;5076951;28;20242;-69
2022/07/09 09:18:11;;;;;;;2.27;1.30;;;;;;;21.81;48.49;99072.13;5076604;28;20311;-70
2022/07/09 09:20:39;;;;;;;3.53;1.40;;;;;;;22.15;47.86;99065.16;5076998;28;20280;-69
2022/07/09 09:23:10;;;;;;;4.33;1.37;;;;;;;22.49;48.07;99067.13;5076932;28;20303;-69
2022/07/09 09:25:37;;;;;;;2.27;1.43;;;;;;;22.55;46.52;99063.31;5077023;28;20662;-70
2022/07/09 09:28:04;;;;;;;1.65;1.33;;;;;;;22.45;46.37;99057.03;5076723;28;20235;-70
2022/07/09 09:30:31;;;;;;;4.83;1.57;;;;;;;22.30;46.61;99054.34;5076839;28;20209;-69
2022/07/09 09:33:02;;;;;;;3.72;2.22;;;;;;;22.92;46.02;99049.47;5077816;28;20208;-70
2022/07/09 09:35:33;;;;;;;2.90;1.33;;;;;;;23.13;44.89;99045.59;5076363;28;20287;-69
2022/07/09 09:38:00;;;;;;;3.03;1.33;;;;;;;22.94;46.31;99044.56;5077443;28;20299;-70
2022/07/09 09:40:27;;;;;;;2.28;1.48;;;;;;;23.29;45.64;99047.22;5076184;28;20201;-70
2022/07/09 09:42:56;;;;;;;2.45;1.42;;;;;;;23.11;44.89;99043.16;5076372;28;20296;-70
2022/07/09 09:45:23;;;;;;;3.42;1.42;;;;;;;23.05;44.55;99046.16;5076472;28;20208;-70
2022/07/09 09:47:52;;;;;;;3.80;2.30;;;;;;;23.43;44.74;99048.25;5076457;28;20291;-70
2022/07/09 09:50:23;;;;;;;5.32;1.85;;;;;;;23.56;44.39;99044.94;5076296;28;20209;-70
2022/07/09 09:52:52;;;;;;;2.08;1.38;;;;;;;24.03;41.94;99040.63;5076494;28;20193;-70
2022/07/09 09:55:20;;;;;;;2.25;1.30;;;;;;;23.43;40.71;99042.81;5076286;28;20244;-70
2022/07/09 09:57:47;;;;;;;3.28;2.10;;;;;;;23.33;41.17;99043.66;5076060;28;20205;-70
2022/07/09 10:00:15;;;;;;;3.05;1.33;;;;;;;24.05;41.89;99035.72;5075833;28;20220;-70
2022/07/09 10:02:45;;;;;;;4.20;1.23;;;;;;;24.35;41.46;99032.78;5075845;28;20283;-70
2022/07/09 10:05:12;;;;;;;2.67;1.48;;;;;;;24.64;39.98;99027.38;5075792;28;20664;-70
2022/07/09 10:07:39;;;;;;;1.50;1.30;;;;;;;24.70;39.58;99027.03;5075942;28;20299;-70
2022/07/09 10:10:07;;;;;;;3.40;1.50;;;;;;;24.00;39.69;99024.06;5075807;28;20335;-70
2022/07/09 10:12:35;;;;;;;1.67;1.20;;;;;;;24.49;40.86;99022.03;5075562;28;20209;-70
2022/07/09 10:15:08;;;;;;;4.00;1.70;;;;;;;24.03;40.49;99018.88;5076016;28;20204;-69
2022/07/09 10:17:41;;;;;;;1.92;1.33;;;;;;;23.73;41.66;99020.94;5075685;28;20279;-70
2022/07/09 10:20:10;;;;;;;1.90;1.30;;;;;;;23.48;40.62;99029.22;5075433;28;20236;-70
2022/07/09 10:22:41;;;;;;;2.35;1.30;;;;;;;23.15;40.94;99024.44;5075223;28;20285;-70
2022/07/09 10:25:29;;;;;;;6.22;3.28;;;;;;;22.89;41.61;99022.88;5075370;28;20216;-70
2022/07/09 10:27:55;;;;;;;2.78;1.55;;;;;;;22.45;42.19;99021.81;5075176;28;20197;-70
2022/07/09 10:30:33;;;;;;;2.70;1.20;;;;;;;22.46;41.27;99015.34;5075035;28;20204;-70
2022/07/09 10:33:13;;;;;;;2.28;1.10;;;;;;;23.17;40.29;99012.22;5075614;28;20204;-70
2022/07/09 10:35:50;;;;;;;1.90;1.20;;;;;;;23.76;39.47;99007.63;5075540;28;20189;-70
2022/07/09 10:38:18;;;;;;;3.38;1.33;;;;;;;24.16;39.26;99009.28;5075541;28;20224;-70
2022/07/09 10:40:57;;;;;;;1.85;1.10;;;;;;;24.17;37.77;99008.19;5075641;28;20295;-70
2022/07/09 10:43:44;;;;;;;1.38;1.20;;;;;;;24.26;38.08;99009.19;5075539;28;20280;-69
2022/07/09 10:46:15;;;;;;;1.42;1.05;;;;;;;24.09;38.71;99009.59;5075180;28;20227;-70
2022/07/09 10:48:42;;;;;;;2.83;1.02;;;;;;;23.96;38.84;98998.53;5074984;28;20665;-70
2022/07/09 10:51:09;;;;;;;2.92;2.63;;;;;;;24.33;39.01;99004.25;5075222;28;20291;-70
2022/07/09 10:53:35;;;;;;;3.22;1.23;;;;;;;24.54;38.85;99002.97;5075247;28;20295;-70
2022/07/09 10:56:02;;;;;;;2.55;1.20;;;;;;;24.51;39.12;99006.28;5075266;28;20303;-70
2022/07/09 10:58:29;;;;;;;3.40;1.48;;;;;;;24.08;40.16;99009.88;5074880;28;20247;-70
2022/07/09 11:01:00;;;;;;;4.28;1.55;;;;;;;24.08;40.06;98999.00;5074395;28;20687;-70
2022/07/09 11:03:30;;;;;;;2.60;1.40;;;;;;;24.02;40.13;99009.09;5074603;28;20213;-70
2022/07/09 11:05:58;;;;;;;2.17;1.40;;;;;;;23.64;41.34;99011.75;5075236;28;20279;-70
2022/07/09 11:08:24;;;;;;;1.90;1.60;;;;;;;23.13;41.75;99013.03;5075158;28;20231;-70
2022/07/09 11:10:51;;;;;;;1.85;1.27;;;;;;;23.21;41.84;99007.06;5074472;28;20751;-71
2022/07/09 11:13:18;;;;;;;3.70;1.30;;;;;;;23.50;42.75;98997.16;5074609;28;20208;-70
2022/07/09 11:15:44;;;;;;;2.72;1.63;;;;;;;24.25;41.06;98994.78;5074866;28;20200;-70
2022/07/09 11:18:14;;;;;;;1.42;1.08;;;;;;;23.92;41.19;98997.50;5074601;28;20250;-70
2022/07/09 11:20:43;;;;;;;2.75;1.30;;;;;;;23.58;41.51;98996.59;5074589;28;20196;-69
2022/07/09 11:23:10;;;;;;;1.65;1.40;;;;;;;23.66;41.31;98998.72;5074264;28;20212;-69
2022/07/09 11:25:36;;;;;;;2.35;1.20;;;;;;;23.43;40.48;98988.53;5074515;28;20216;-69
2022/07/09 11:28:03;;;;;;;2.13;1.58;;;;;;;23.66;40.30;98990.56;5074363;28;20218;-70
2022/07/09 11:30:32;;;;;;;1.80;1.40;;;;;;;23.83;39.47;98986.38;5074441;28;20200;-70
2022/07/09 11:32:59;;;;;;;4.35;1.30;;;;;;;23.49;39.85;98987.41;5073711;28;20212;-70
2022/07/09 11:35:33;;;;;;;3.90;1.00;;;;;;;23.81;40.68;98985.03;5073777;28;20254;-69